Time;durP1;ratioP1;P1;durP2;ratioP2;P2;SDS_P1;SDS_P2;PMS_P1;PMS_P2;Temp;Humidity;BMP_temperature;BMP_pressure;BME280_temperature;BME280_humidity;BME280_pressure;Samples;Min_cycle;Max_cycle;Signal;HPM_P1;HPM_P2
2024/03/19 00:00:42;;;;;;;0.32;0.17;;;;;;;35.37;25.54;99145.97;7391461;19;20010;-90
2024/03/19 00:03:08;;;;;;;1.95;0.30;;;;;;;35.42;25.79;99146.88;7392102;19;20031;-90
2024/03/19 00:05:34;;;;;;;0.73;0.47;;;;;;;35.38;25.83;99150.38;7391742;19;20015;-89
2024/03/19 00:08:00;;;;;;;0.57;0.35;;;;;;;35.22;25.86;99155.53;7393134;19;20039;-89
2024/03/19 00:10:26;;;;;;;0.90;0.20;;;;;;;35.13;25.86;99162.44;7394533;19;20018;-90
2024/03/19 00:12:53;;;;;;;0.28;0.20;;;;;;;35.25;25.76;99162.91;7392691;19;20049;-89
2024/03/19 00:15:19;;;;;;;0.90;0.20;;;;;;;35.14;26.02;99166.81;7391399;19;20010;-90
2024/03/19 00:17:46;;;;;;;0.38;0.38;;;;;;;35.30;25.74;99176.13;7391443;19;20015;-90
2024/03/19 00:20:12;;;;;;;0.30;0.22;;;;;;;35.39;25.72;99151.84;7392134;19;20010;-90
2024/03/19 00:22:38;;;;;;;0.15;0.15;;;;;;;35.43;25.52;99154.88;7393904;19;20019;-89
2024/03/19 00:25:08;;;;;;;0.22;0.22;;;;;;;35.57;25.43;99146.75;7390188;19;20466;-90
2024/03/19 00:27:34;;;;;;;0.20;0.13;;;;;;;35.39;25.84;99143.16;7393242;19;20089;-90
2024/03/19 00:30:03;;;;;;;2.17;0.25;;;;;;;35.57;25.61;99146.75;7392005;19;20011;-89
2024/03/19 00:32:30;;;;;;;0.10;0.00;;;;;;;35.25;25.51;99133.94;7392264;19;20040;-89
2024/03/19 00:34:57;;;;;;;2.05;0.20;;;;;;;35.12;25.70;99139.94;7394105;19;20022;-89
2024/03/19 00:37:24;;;;;;;0.20;0.10;;;;;;;34.98;26.26;99137.22;7390086;19;20022;-89
2024/03/19 00:39:50;;;;;;;20.38;1.25;;;;;;;35.05;25.84;99139.72;7390553;19;20018;-89
2024/03/19 00:42:16;;;;;;;3.40;0.95;;;;;;;35.11;26.10;99141.38;7390211;19;20021;-89
2024/03/19 00:44:42;;;;;;;0.10;0.10;;;;;;;35.51;25.49;99143.63;7393872;19;20010;-90
2024/03/19 00:47:08;;;;;;;1.45;0.47;;;;;;;35.83;25.23;99138.25;7391141;19;20014;-90
2024/03/19 00:49:34;;;;;;;0.38;0.32;;;;;;;35.94;25.33;99124.84;7393259;19;20011;-90
2024/03/19 00:52:00;;;;;;;0.43;0.40;;;;;;;35.15;25.72;99121.97;7392845;19;20024;-90
2024/03/19 00:54:26;;;;;;;0.15;0.15;;;;;;;34.95;25.68;99118.28;7391778;19;20010;-89
2024/03/19 00:56:52;;;;;;;0.50;0.28;;;;;;;34.83;25.76;99117.81;7393243;19;20046;-88
2024/03/19 00:59:18;;;;;;;0.32;0.32;;;;;;;34.11;26.24;99116.34;7391457;19;20022;-90
2024/03/19 01:01:45;;;;;;;0.28;0.25;;;;;;;34.53;25.80;99119.50;7391160;19;20532;-90
2024/03/19 01:04:11;;;;;;;0.10;0.10;;;;;;;34.80;25.94;99117.00;7392143;19;20019;-90
2024/03/19 01:06:37;;;;;;;0.20;0.10;;;;;;;35.17;25.61;99110.50;7390622;19;20476;-89
2024/03/19 01:09:12;;;;;;;0.30;0.20;;;;;;;34.99;25.64;99121.34;7390818;19;20018;-88
2024/03/19 01:11:39;;;;;;;6.07;0.80;;;;;;;35.01;25.88;99118.56;7390537;19;20038;-89
2024/03/19 01:14:05;;;;;;;0.10;0.00;;;;;;;35.07;25.78;99112.97;7390310;19;20014;-89
2024/03/19 01:16:35;;;;;;;2.92;0.70;;;;;;;35.34;25.60;99106.78;7393378;19;20452;-89
2024/03/19 01:19:01;;;;;;;0.15;0.10;;;;;;;35.18;25.38;99100.38;7392708;19;20010;-89
2024/03/19 01:21:27;;;;;;;0.17;0.17;;;;;;;34.98;25.58;99096.69;7391349;19;20025;-90
2024/03/19 01:23:53;;;;;;;0.32;0.32;;;;;;;34.88;25.50;99102.09;7391133;19;20026;-90
2024/03/19 01:26:19;;;;;;;0.30;0.30;;;;;;;34.64;25.77;99107.69;7392140;19;20041;-89
2024/03/19 01:28:45;;;;;;;2.05;0.50;;;;;;;34.32;25.89;99104.22;7392568;19;20015;-91
2024/03/19 01:31:11;;;;;;;1.50;0.82;;;;;;;34.63;25.74;99099.69;7392382;19;20030;-90
2024/03/19 01:33:38;;;;;;;0.20;0.05;;;;;;;34.75;25.55;99097.25;7389372;19;20046;-89
2024/03/19 01:36:04;;;;;;;0.10;0.10;;;;;;;34.55;25.87;99087.78;7390954;19;20025;-89
2024/03/19 01:38:30;;;;;;;0.13;0.13;;;;;;;34.52;25.74;99083.31;7407421;19;20508;-89
2024/03/19 01:40:56;;;;;;;0.20;0.20;;;;;;;34.64;25.92;99089.59;7403839;19;20014;-89
2024/03/19 01:43:23;;;;;;;0.38;0.28;;;;;;;35.01;25.83;99087.47;7404111;19;20041;-89
2024/03/19 01:46:07;;;;;;;2.60;0.32;;;;;;;34.99;25.84;99090.28;7404845;19;20023;-89
2024/03/19 01:48:34;;;;;;;0.52;0.40;;;;;;;34.81;25.96;99085.91;7404866;19;20476;-88
2024/03/19 01:51:00;;;;;;;0.90;0.30;;;;;;;34.69;26.27;99091.22;7404338;19;20042;-88
2024/03/19 01:53:27;;;;;;;0.52;0.43;;;;;;;35.03;25.63;99086.78;7405600;19;20018;-88
2024/03/19 01:55:54;;;;;;;0.17;0.10;;;;;;;34.69;26.15;99089.09;7401670;19;20044;-88
2024/03/19 01:58:22;;;;;;;0.10;0.10;;;;;;;34.67;26.23;99082.47;7406350;19;20025;-88
2024/03/19 02:00:49;;;;;;;1.00;0.55;;;;;;;34.96;25.87;99082.13;7401437;19;20045;-88
2024/03/19 02:03:16;;;;;;;0.10;0.00;;;;;;;35.19;25.49;99083.75;7404014;19;20464;-88
2024/03/19 02:05:45;;;;;;;0.10;0.10;;;;;;;35.04;25.58;99088.28;7403579;19;20018;-88
2024/03/19 02:08:12;;;;;;;1.17;0.30;;;;;;;34.74;26.00;99076.25;7408013;19;20010;-87
2024/03/19 02:10:39;;;;;;;0.10;0.10;;;;;;;34.62;25.91;99080.81;7404305;19;20039;-87
2024/03/19 02:13:05;;;;;;;0.47;0.28;;;;;;;34.72;26.02;99089.88;7404313;19;20029;-88
2024/03/19 02:15:31;;;;;;;0.20;0.20;;;;;;;34.73;25.91;99080.56;7403018;19;20014;-88
2024/03/19 02:17:57;;;;;;;0.13;0.10;;;;;;;34.76;25.93;99090.06;7404864;19;20052;-89
2024/03/19 02:20:23;;;;;;;0.30;0.30;;;;;;;34.75;26.09;99086.44;7406035;19;20085;-88
2024/03/19 02:22:50;;;;;;;0.20;0.20;;;;;;;34.67;25.68;99094.06;7400500;19;20023;-88
2024/03/19 02:25:16;;;;;;;0.25;0.15;;;;;;;34.58;25.96;99083.56;7399963;19;20082;-88
2024/03/19 02:27:46;;;;;;;0.95;0.20;;;;;;;34.88;25.57;99084.75;7405692;19;20340;-88
2024/03/19 02:30:13;;;;;;;0.15;0.15;;;;;;;34.68;25.89;99084.69;7403496;19;20356;-88
2024/03/19 02:32:39;;;;;;;1.05;0.57;;;;;;;34.66;25.87;99075.19;7402756;19;20372;-88
2024/03/19 02:35:08;;;;;;;4.18;0.50;;;;;;;34.77;25.97;99077.81;7401596;19;20022;-89
2024/03/19 02:37:35;;;;;;;2.20;1.05;;;;;;;34.88;25.69;99076.06;7403939;19;20014;-88
2024/03/19 02:40:05;;;;;;;1.85;0.45;;;;;;;34.86;25.70;99075.97;7399821;19;20022;-88
2024/03/19 02:42:32;;;;;;;0.10;0.10;;;;;;;34.88;25.79;99073.91;7400100;19;20543;-89
2024/03/19 02:45:00;;;;;;;0.98;0.85;;;;;;;34.96;26.09;99082.88;7400308;19;20100;-89
2024/03/19 02:47:28;;;;;;;0.17;0.17;;;;;;;35.19;25.75;99072.91;7402811;19;20033;-89
2024/03/19 02:49:55;;;;;;;0.32;0.32;;;;;;;34.84;25.89;99078.78;7397692;19;20255;-89
2024/03/19 02:52:21;;;;;;;0.00;0.00;;;;;;;35.13;25.36;99080.63;7395048;19;20443;-89
2024/03/19 02:54:47;;;;;;;3.30;1.77;;;;;;;35.09;25.79;99075.44;7395493;19;20125;-89
2024/03/19 02:57:14;;;;;;;0.20;0.20;;;;;;;35.05;25.86;99073.13;7395167;19;20384;-89
2024/03/19 02:59:40;;;;;;;0.70;0.50;;;;;;;34.86;25.81;99064.41;7395873;19;20015;-89
2024/03/19 03:02:06;;;;;;;0.75;0.47;;;;;;;34.74;26.05;99063.94;7395567;19;20015;-88
2024/03/19 03:04:32;;;;;;;0.35;0.20;;;;;;;35.29;25.28;99070.38;7394898;19;20015;-87
2024/03/19 03:06:58;;;;;;;0.38;0.38;;;;;;;35.62;25.16;99067.25;7394877;19;20050;-88
2024/03/19 03:09:24;;;;;;;0.30;0.10;;;;;;;36.09;25.05;99066.69;7394450;19;20098;-89
2024/03/19 03:11:50;;;;;;;0.28;0.10;;;;;;;35.25;25.87;99064.44;7397354;19;20022;-89
2024/03/19 03:14:16;;;;;;;0.10;0.10;;;;;;;35.04;25.83;99068.03;7394423;19;20037;-89
2024/03/19 03:16:42;;;;;;;0.80;0.47;;;;;;;34.94;25.78;99064.69;7396251;19;20029;-89
2024/03/19 03:19:09;;;;;;;0.10;0.00;;;;;;;34.80;25.90;99084.44;7396553;19;20013;-89
2024/03/19 03:21:35;;;;;;;0.30;0.20;;;;;;;34.81;25.96;99080.88;7395917;19;20014;-89
2024/03/19 03:24:02;;;;;;;0.10;0.00;;;;;;;36.23;24.82;99075.13;7394225;19;20500;-88
2024/03/19 03:26:28;;;;;;;0.45;0.45;;;;;;;36.35;25.04;99081.31;7392742;19;20070;-89
2024/03/19 03:28:54;;;;;;;3.05;0.55;;;;;;;36.18;24.93;99085.09;7396292;19;20019;-89
2024/03/19 03:31:20;;;;;;;5.68;0.52;;;;;;;36.52;24.62;99083.31;7396944;19;20026;-90
2024/03/19 03:33:46;;;;;;;0.10;0.10;;;;;;;36.75;24.62;99088.41;7396007;19;20014;-89
2024/03/19 03:36:13;;;;;;;0.10;0.10;;;;;;;36.29;25.07;99075.31;7392362;19;20535;-89
2024/03/19 03:38:39;;;;;;;1.42;0.38;;;;;;;36.35;24.54;99081.31;7393931;19;20042;-89
2024/03/19 03:41:07;;;;;;;0.10;0.10;;;;;;;36.52;24.50;99071.72;7391936;19;20022;-89
2024/03/19 03:43:35;;;;;;;0.55;0.52;;;;;;;36.81;24.40;99079.88;7394894;19;20045;-89
2024/03/19 03:46:01;;;;;;;2.45;0.55;;;;;;;36.07;24.77;99086.19;7392605;19;20021;-88
2024/03/19 03:48:28;;;;;;;0.10;0.10;;;;;;;35.95;24.96;99085.75;7395162;19;20018;-89
2024/03/19 03:50:54;;;;;;;2.58;0.47;;;;;;;35.48;25.50;99092.06;7394453;19;20014;-89
2024/03/19 03:53:20;;;;;;;2.30;0.38;;;;;;;35.46;25.76;99078.25;7394201;19;20437;-89
2024/03/19 03:55:46;;;;;;;2.85;0.50;;;;;;;34.85;26.00;99077.38;7395035;19;20011;-89
2024/03/19 03:58:12;;;;;;;0.10;0.10;;;;;;;34.87;26.31;99086.16;7391669;19;20017;-89
2024/03/19 04:00:39;;;;;;;6.95;0.30;;;;;;;35.01;25.88;99084.56;7390929;19;20014;-89
2024/03/19 04:03:05;;;;;;;0.95;0.00;;;;;;;36.10;25.48;99079.03;7390601;19;20011;-89
2024/03/19 04:05:31;;;;;;;0.47;0.47;;;;;;;35.69;25.79;99088.50;7390430;19;20025;-89
2024/03/19 04:07:57;;;;;;;0.10;0.10;;;;;;;35.52;25.73;99087.16;7396295;19;20022;-89
2024/03/19 04:10:24;;;;;;;1.20;0.40;;;;;;;36.24;25.34;99085.28;7393210;19;20010;-89
2024/03/19 04:12:50;;;;;;;0.30;0.30;;;;;;;36.24;25.14;99088.94;7393119;19;20022;-89
2024/03/19 04:15:16;;;;;;;0.40;0.10;;;;;;;36.64;24.85;99080.81;7393363;19;20010;-89
2024/03/19 04:17:42;;;;;;;0.10;0.10;;;;;;;36.80;24.80;99092.16;7390708;19;20069;-89
2024/03/19 04:20:11;;;;;;;0.20;0.20;;;;;;;36.81;24.93;99085.69;7396034;19;20018;-89
2024/03/19 04:22:38;;;;;;;0.55;0.32;;;;;;;36.81;24.45;99088.59;7390483;19;20543;-89
2024/03/19 04:25:06;;;;;;;0.10;0.05;;;;;;;36.84;24.55;99084.31;7389925;19;20011;-89
2024/03/19 04:27:33;;;;;;;0.50;0.35;;;;;;;36.98;24.54;99084.78;7390145;19;20015;-88
2024/03/19 04:29:59;;;;;;;0.10;0.10;;;;;;;37.02;24.44;99082.00;7390728;19;20090;-89
2024/03/19 04:32:26;;;;;;;0.20;0.20;;;;;;;36.32;25.05;99091.38;7391798;19;20022;-89
2024/03/19 04:34:52;;;;;;;0.30;0.20;;;;;;;35.66;25.43;99096.38;7390151;19;20024;-88
2024/03/19 04:37:18;;;;;;;0.10;0.10;;;;;;;35.13;25.94;99092.94;7389862;19;20018;-89
2024/03/19 04:39:44;;;;;;;1.20;0.40;;;;;;;35.50;25.70;99095.03;7392007;19;20016;-89
2024/03/19 04:42:17;;;;;;;3.50;0.65;;;;;;;35.90;25.38;99089.91;7397063;19;20022;-89
2024/03/19 04:44:44;;;;;;;0.80;0.20;;;;;;;36.13;25.40;99089.28;7392668;19;20018;-89
2024/03/19 04:47:11;;;;;;;0.32;0.10;;;;;;;35.99;25.44;99097.50;7390301;19;20022;-90
2024/03/19 04:49:37;;;;;;;8.02;0.52;;;;;;;35.32;25.89;99098.00;7395155;19;20059;-89
2024/03/19 04:52:03;;;;;;;0.10;0.10;;;;;;;34.88;26.43;99096.31;7393410;19;20029;-89
2024/03/19 04:54:29;;;;;;;0.10;0.00;;;;;;;34.75;26.70;99100.16;7397091;19;20019;-90
2024/03/19 04:56:56;;;;;;;0.10;0.00;;;;;;;34.04;27.48;99091.50;7389298;19;20105;-89
2024/03/19 04:59:22;;;;;;;0.10;0.10;;;;;;;33.78;27.47;99084.59;7392707;19;20027;-89
2024/03/19 05:01:48;;;;;;;0.43;0.25;;;;;;;32.62;28.60;99092.28;7392889;19;20018;-90
2024/03/19 05:04:14;;;;;;;0.30;0.20;;;;;;;32.46;28.80;99105.16;7393530;19;20015;-89
2024/03/19 05:06:40;;;;;;;0.10;0.10;;;;;;;32.69;28.79;99085.41;7390006;19;20011;-90
2024/03/19 05:09:07;;;;;;;0.10;0.03;;;;;;;32.47;29.17;99097.97;7392970;19;20018;-90
2024/03/19 05:11:33;;;;;;;1.27;0.43;;;;;;;32.54;28.88;99097.66;7390525;19;20082;-90
2024/03/19 05:13:59;;;;;;;0.20;0.20;;;;;;;33.29;28.27;99086.72;7391881;19;20010;-90
2024/03/19 05:16:26;;;;;;;0.30;0.30;;;;;;;32.74;28.88;99092.88;7396095;19;20015;-89
2024/03/19 05:18:52;;;;;;;0.47;0.17;;;;;;;32.56;29.10;99089.09;7395406;19;20023;-89
2024/03/19 05:21:18;;;;;;;1.20;0.60;;;;;;;32.41;29.11;99089.03;7389550;19;20033;-89
2024/03/19 05:23:45;;;;;;;0.35;0.35;;;;;;;32.56;29.27;99083.34;7390748;19;20015;-90
2024/03/19 05:26:11;;;;;;;0.10;0.10;;;;;;;32.72;28.94;99084.13;7392936;19;20481;-89
2024/03/19 05:28:37;;;;;;;1.85;0.43;;;;;;;32.29;29.35;99089.22;7389907;19;20018;-89
2024/03/19 05:31:21;;;;;;;1.17;0.35;;;;;;;32.43;29.46;99086.25;7391547;19;20496;-89
2024/03/19 05:33:55;;;;;;;1.95;0.28;;;;;;;32.62;29.41;99080.75;7390594;19;20015;-88
2024/03/19 05:36:22;;;;;;;0.15;0.15;;;;;;;32.64;29.24;99083.72;7390369;19;20089;-89
2024/03/19 05:38:48;;;;;;;0.20;0.03;;;;;;;32.43;29.56;99092.78;7394152;19;20498;-90
2024/03/19 05:41:15;;;;;;;0.10;0.10;;;;;;;32.50;29.52;99093.84;7388028;19;20022;-90
2024/03/19 05:43:42;;;;;;;0.10;0.10;;;;;;;32.21;29.68;99103.22;7388070;19;20032;-89
2024/03/19 05:46:08;;;;;;;0.20;0.10;;;;;;;32.44;29.49;99105.81;7388991;19;20078;-89
2024/03/19 05:48:37;;;;;;;0.10;0.10;;;;;;;32.33;29.81;99103.06;7390702;19;20022;-88
2024/03/19 05:51:10;;;;;;;0.30;0.17;;;;;;;32.12;30.17;99104.97;7390439;19;20018;-89
2024/03/19 05:53:37;;;;;;;0.15;0.15;;;;;;;32.20;30.12;99112.53;7391147;19;20033;-88
2024/03/19 05:56:04;;;;;;;0.20;0.20;;;;;;;32.09;30.08;99117.03;7389808;19;20018;-88
2024/03/19 05:58:31;;;;;;;0.63;0.30;;;;;;;31.74;30.73;99111.66;7390133;19;20019;-91
2024/03/19 06:00:59;;;;;;;0.32;0.30;;;;;;;31.70;31.02;99110.69;7388536;19;20010;-90
2024/03/19 06:03:25;;;;;;;0.57;0.28;;;;;;;31.88;30.86;99109.47;7387948;19;20050;-89
2024/03/19 06:05:53;;;;;;;0.20;0.20;;;;;;;31.84;30.74;99117.16;7389195;19;20023;-89
2024/03/19 06:08:19;;;;;;;0.98;0.52;;;;;;;31.69;30.81;99121.44;7389730;19;20021;-89
2024/03/19 06:10:45;;;;;;;10.52;1.45;;;;;;;32.32;30.70;99122.50;7391754;19;20092;-90
2024/03/19 06:13:11;;;;;;;0.10;0.10;;;;;;;32.67;29.85;99128.56;7392828;19;20033;-90
2024/03/19 06:15:37;;;;;;;0.10;0.00;;;;;;;31.59;31.31;99143.22;7391030;19;20018;-90
2024/03/19 06:18:04;;;;;;;0.10;0.10;;;;;;;31.43;31.52;99135.22;7387153;19;20536;-89
2024/03/19 06:20:31;;;;;;;0.10;0.10;;;;;;;31.28;31.56;99141.59;7392515;19;20010;-90
2024/03/19 06:22:57;;;;;;;0.10;0.00;;;;;;;31.63;31.71;99154.94;7390777;19;20033;-90
2024/03/19 06:25:23;;;;;;;0.28;0.28;;;;;;;31.77;31.18;99164.34;7395504;19;20031;-90
2024/03/19 06:27:49;;;;;;;1.02;0.55;;;;;;;32.17;30.83;99158.53;7396190;19;20097;-88
2024/03/19 06:30:17;;;;;;;0.30;0.30;;;;;;;32.45;30.66;99162.06;7395962;19;20409;-90
2024/03/19 06:32:45;;;;;;;0.10;0.05;;;;;;;32.17;30.89;99163.53;7395582;19;20018;-89
2024/03/19 06:35:14;;;;;;;0.20;0.10;;;;;;;32.50;30.20;99172.44;7398225;19;20023;-87
2024/03/19 06:37:43;;;;;;;5.57;1.10;;;;;;;32.95;30.38;99166.66;7396730;19;20014;-88
2024/03/19 06:40:10;;;;;;;6.30;2.13;;;;;;;32.63;30.37;99168.00;7396477;19;20019;-88
2024/03/19 06:42:37;;;;;;;11.00;3.08;;;;;;;33.23;30.13;99175.91;7396500;19;20022;-89
2024/03/19 06:45:08;;;;;;;16.98;3.35;;;;;;;33.34;29.98;99169.97;7395114;19;20022;-89
2024/03/19 06:47:34;;;;;;;;;;;;;;;34.33;29.11;99169.31;7397816;19;20019;-88
2024/03/19 06:50:00;;;;;;;12.75;2.70;;;;;;;33.75;29.24;99163.13;7396673;19;19926;-88
2024/03/19 06:52:26;;;;;;;14.93;3.97;;;;;;;32.48;30.80;99166.56;7393333;19;20074;-88
2024/03/19 06:54:53;;;;;;;9.90;2.63;;;;;;;32.64;30.58;99170.22;7393377;19;20471;-88
2024/03/19 06:57:19;;;;;;;6.05;1.30;;;;;;;32.46;30.71;99183.75;7394691;19;20556;-88
2024/03/19 06:59:45;;;;;;;13.00;1.98;;;;;;;32.41;30.73;99182.03;7395979;19;20547;-88
2024/03/19 07:02:13;;;;;;;19.50;2.55;;;;;;;33.59;29.77;99183.41;7395775;19;20018;-87
2024/03/19 07:04:39;;;;;;;7.65;1.80;;;;;;;33.63;29.71;99180.69;7394398;19;20018;-87
2024/03/19 07:07:06;;;;;;;5.18;1.67;;;;;;;32.83;30.50;99186.28;7394641;19;20115;-87
2024/03/19 07:09:32;;;;;;;7.68;2.92;;;;;;;32.39;31.02;99189.84;7394514;19;20015;-88
2024/03/19 07:11:58;;;;;;;2.05;0.77;;;;;;;32.27;31.26;99195.75;7395349;19;20014;-88
2024/03/19 07:14:24;;;;;;;1.85;1.00;;;;;;;33.22;30.41;99203.31;7395465;19;20045;-88
2024/03/19 07:16:50;;;;;;;2.40;1.02;;;;;;;32.23;31.37;99212.84;7396462;19;20019;-88
2024/03/19 07:19:17;;;;;;;1.55;0.52;;;;;;;32.47;30.97;99205.44;7396144;19;20019;-88
2024/03/19 07:21:44;;;;;;;0.55;0.55;;;;;;;32.18;31.41;99211.16;7395248;19;20021;-88
2024/03/19 07:24:10;;;;;;;4.32;0.90;;;;;;;32.12;31.41;99208.69;7394788;19;20011;-88
2024/03/19 07:26:36;;;;;;;0.60;0.55;;;;;;;32.35;31.54;99207.69;7394274;19;20077;-88
2024/03/19 07:29:02;;;;;;;1.25;1.00;;;;;;;32.92;30.90;99204.75;7394340;19;20018;-88
2024/03/19 07:31:28;;;;;;;0.43;0.28;;;;;;;32.79;31.13;99226.50;7394340;19;20360;-88
2024/03/19 07:33:54;;;;;;;0.28;0.28;;;;;;;32.49;31.72;99211.31;7393110;19;20032;-88
2024/03/19 07:36:20;;;;;;;0.57;0.35;;;;;;;33.10;30.82;99203.47;7391488;19;20018;-88
2024/03/19 07:38:47;;;;;;;0.85;0.55;;;;;;;33.44;30.49;99204.34;7391257;19;20011;-88
2024/03/19 07:41:13;;;;;;;1.60;1.25;;;;;;;33.10;30.71;99215.03;7391333;19;20014;-88
2024/03/19 07:43:39;;;;;;;0.90;0.82;;;;;;;32.30;31.73;99225.41;7391521;19;20033;-88
2024/03/19 07:46:05;;;;;;;0.10;0.10;;;;;;;32.06;31.96;99233.56;7390561;19;20472;-90
2024/03/19 07:48:32;;;;;;;0.10;0.10;;;;;;;32.57;32.06;99237.66;7393587;19;20025;-89
2024/03/19 07:50:58;;;;;;;0.43;0.43;;;;;;;32.51;31.86;99240.22;7394036;19;20017;-87
2024/03/19 07:53:25;;;;;;;0.30;0.30;;;;;;;33.50;30.65;99239.28;7393522;19;20563;-90
2024/03/19 07:55:51;;;;;;;0.30;0.25;;;;;;;32.98;31.43;99243.28;7391233;19;20040;-88
2024/03/19 07:58:17;;;;;;;2.58;0.77;;;;;;;32.76;31.48;99254.50;7390166;19;20028;-90
2024/03/19 08:00:43;;;;;;;0.57;0.40;;;;;;;32.69;31.39;99258.44;7391816;19;20095;-89
2024/03/19 08:03:11;;;;;;;0.50;0.30;;;;;;;32.69;31.42;99261.34;7392242;19;20045;-89
2024/03/19 08:05:37;;;;;;;1.35;0.82;;;;;;;32.84;31.23;99254.13;7392766;19;20026;-92
2024/03/19 08:08:04;;;;;;;7.38;0.40;;;;;;;33.93;29.90;99245.59;7394116;19;20019;-90
2024/03/19 08:10:30;;;;;;;1.48;0.35;;;;;;;34.24;30.07;99251.31;7394904;19;20088;-90
2024/03/19 08:12:56;;;;;;;3.97;1.10;;;;;;;34.44;29.87;99257.22;7392124;19;20007;-90
2024/03/19 08:15:22;;;;;;;2.40;0.13;;;;;;;33.78;30.19;99265.84;7396997;19;20010;-90
2024/03/19 08:17:48;;;;;;;2.47;0.50;;;;;;;33.68;30.40;99271.88;7390411;19;20035;-89
2024/03/19 08:20:16;;;;;;;2.17;0.77;;;;;;;34.09;29.83;99281.03;7395055;19;20035;-90
2024/03/19 08:22:42;;;;;;;0.22;0.22;;;;;;;34.10;29.50;99276.75;7391535;19;20460;-90
2024/03/19 08:25:10;;;;;;;1.33;0.47;;;;;;;33.30;30.39;99278.75;7390093;19;20017;-89
2024/03/19 08:27:36;;;;;;;0.98;0.45;;;;;;;33.90;29.94;99281.56;7389539;19;20021;-90
2024/03/19 08:30:11;;;;;;;0.28;0.28;;;;;;;33.94;29.58;99281.75;7391764;19;20021;-90
2024/03/19 08:32:37;;;;;;;0.70;0.43;;;;;;;33.82;29.72;99284.09;7393805;19;20025;-90
2024/03/19 08:35:08;;;;;;;6.78;0.63;;;;;;;33.86;29.69;99298.75;7391048;19;20105;-90
2024/03/19 08:37:36;;;;;;;0.30;0.30;;;;;;;33.75;29.72;99299.66;7392605;19;20066;-90
2024/03/19 08:40:05;;;;;;;7.47;0.85;;;;;;;33.90;29.98;99307.59;7391976;19;20031;-89
2024/03/19 08:42:34;;;;;;;2.35;0.98;;;;;;;34.02;29.89;99311.06;7391000;19;20115;-91
2024/03/19 08:45:04;;;;;;;3.30;0.40;;;;;;;33.97;29.77;99320.91;7391920;19;20018;-90
2024/03/19 08:47:31;;;;;;;0.75;0.55;;;;;;;32.85;30.83;99328.47;7386173;19;20022;-89
2024/03/19 08:49:57;;;;;;;0.17;0.17;;;;;;;32.64;31.18;99320.19;7395739;19;20014;-88
2024/03/19 08:52:23;;;;;;;5.88;0.90;;;;;;;32.99;30.55;99319.81;7391960;19;20041;-88
2024/03/19 08:54:50;;;;;;;0.63;0.28;;;;;;;32.85;30.85;99328.47;7391931;19;20024;-92
2024/03/19 08:57:16;;;;;;;0.40;0.40;;;;;;;33.73;30.05;99325.56;7390544;19;20025;-94
2024/03/19 08:59:42;;;;;;;0.10;0.10;;;;;;;34.03;29.70;99329.13;7397234;19;20011;-94
2024/03/19 09:02:09;;;;;;;1.50;0.25;;;;;;;34.17;29.62;99318.22;7394788;19;20032;-92
2024/03/19 09:04:35;;;;;;;5.82;1.65;;;;;;;34.65;28.77;99328.31;7392673;19;20455;-93
2024/03/19 09:07:01;;;;;;;2.30;0.30;;;;;;;34.84;28.99;99327.66;7391572;19;20006;-92
2024/03/19 09:09:27;;;;;;;1.20;0.30;;;;;;;33.89;29.65;99326.34;7393315;19;20022;-91
2024/03/19 09:11:53;;;;;;;1.10;0.50;;;;;;;33.94;29.73;99333.06;7391886;19;20465;-92
2024/03/19 09:14:20;;;;;;;3.95;0.30;;;;;;;33.44;30.43;99340.78;7390698;19;20374;-92
2024/03/19 09:16:46;;;;;;;0.10;0.10;;;;;;;33.15;31.02;99342.97;7395050;19;20019;-92
2024/03/19 09:19:12;;;;;;;0.30;0.30;;;;;;;33.14;30.87;99350.13;7395024;19;20599;-93
2024/03/19 09:21:38;;;;;;;0.68;0.13;;;;;;;33.48;31.23;99352.53;7391648;19;20022;-92
2024/03/19 09:24:05;;;;;;;2.05;0.32;;;;;;;34.82;29.90;99365.22;7391183;19;20014;-92
2024/03/19 09:26:31;;;;;;;0.75;0.35;;;;;;;35.00;29.76;99363.09;7388637;19;20022;-92
2024/03/19 09:28:57;;;;;;;0.10;0.00;;;;;;;34.87;30.00;99361.09;7391843;19;20018;-91
2024/03/19 09:31:24;;;;;;;0.65;0.22;;;;;;;35.23;29.52;99359.75;7392277;19;20018;-92
2024/03/19 09:33:50;;;;;;;1.05;0.30;;;;;;;35.27;28.96;99357.00;7392087;19;20014;-92
2024/03/19 09:36:18;;;;;;;0.82;0.17;;;;;;;35.29;29.04;99359.97;7391281;19;20360;-92
2024/03/19 09:38:48;;;;;;;2.20;0.30;;;;;;;35.29;29.05;99345.50;7388425;19;20011;-92
2024/03/19 09:41:18;;;;;;;0.50;0.28;;;;;;;35.38;28.78;99361.81;7389062;19;20014;-92
2024/03/19 09:43:48;;;;;;;0.22;0.20;;;;;;;35.52;28.61;99353.69;7390093;19;20014;-92
2024/03/19 09:46:15;;;;;;;0.40;0.35;;;;;;;35.44;28.68;99359.13;7392104;19;20476;-92
2024/03/19 09:48:42;;;;;;;0.10;0.10;;;;;;;35.17;28.29;99358.75;7391290;19;20360;-92
2024/03/19 09:51:18;;;;;;;0.85;0.25;;;;;;;35.11;28.12;99356.31;7390185;19;20006;-92
2024/03/19 09:53:45;;;;;;;6.95;1.25;;;;;;;35.09;28.20;99359.13;7390776;19;20015;-92
2024/03/19 09:56:19;;;;;;;3.50;0.77;;;;;;;35.68;27.79;99365.94;7391230;19;20051;-92
2024/03/19 09:58:50;;;;;;;1.10;0.95;;;;;;;36.65;26.62;99375.41;7392805;19;20041;-92
2024/03/19 10:01:16;;;;;;;5.97;0.38;;;;;;;36.40;26.94;99385.38;7394658;19;20011;-91
2024/03/19 10:03:43;;;;;;;0.43;0.20;;;;;;;36.55;26.92;99391.72;7394747;19;20019;-92
2024/03/19 10:06:18;;;;;;;1.48;0.22;;;;;;;35.72;27.46;99388.53;7399278;19;20028;-92
2024/03/19 10:08:45;;;;;;;6.47;1.00;;;;;;;36.07;27.38;99390.63;7397721;19;20015;-91
2024/03/19 10:11:15;;;;;;;0.13;0.13;;;;;;;35.78;27.36;99404.00;7397481;19;20041;-92
2024/03/19 10:13:42;;;;;;;0.93;0.25;;;;;;;35.72;27.58;99405.91;7397811;19;20018;-92
2024/03/19 10:16:10;;;;;;;1.98;0.40;;;;;;;35.72;27.22;99406.66;7395999;19;20014;-90
2024/03/19 10:18:37;;;;;;;0.75;0.57;;;;;;;35.71;26.94;99405.16;7398078;19;20014;-90
2024/03/19 10:21:06;;;;;;;2.45;1.25;;;;;;;35.68;26.65;99403.59;7395779;19;20023;-89
2024/03/19 10:23:33;;;;;;;1.48;0.38;;;;;;;36.29;26.56;99403.81;7394594;19;20487;-89
2024/03/19 10:25:59;;;;;;;1.50;0.22;;;;;;;36.44;26.25;99399.31;7395099;19;20431;-89
2024/03/19 10:28:25;;;;;;;0.20;0.20;;;;;;;36.46;26.19;99408.09;7398213;19;20105;-90
2024/03/19 10:30:52;;;;;;;0.20;0.20;;;;;;;36.84;26.38;99406.56;7400671;19;20381;-89
2024/03/19 10:33:18;;;;;;;0.10;0.00;;;;;;;36.60;26.38;99411.50;7396658;19;20070;-91
2024/03/19 10:35:46;;;;;;;2.20;0.30;;;;;;;36.27;26.82;99417.50;7396363;19;20010;-91
2024/03/19 10:38:13;;;;;;;0.10;0.10;;;;;;;35.83;26.49;99415.75;7393981;19;20013;-91
2024/03/19 10:40:43;;;;;;;0.10;0.05;;;;;;;36.82;26.06;99423.91;7396545;19;20022;-91
2024/03/19 10:43:17;;;;;;;0.20;0.00;;;;;;;37.09;25.83;99422.69;7394041;19;20029;-90
2024/03/19 10:45:46;;;;;;;0.25;0.22;;;;;;;37.19;26.02;99423.78;7393881;19;20018;-90
2024/03/19 10:48:13;;;;;;;1.00;0.70;;;;;;;36.04;26.17;99429.66;7397962;19;20022;-90
2024/03/19 10:50:42;;;;;;;0.10;0.10;;;;;;;35.98;26.33;99432.31;7394844;19;20014;-90
2024/03/19 10:53:14;;;;;;;0.85;0.50;;;;;;;37.11;25.42;99432.22;7398878;19;20011;-89
2024/03/19 10:55:41;;;;;;;0.98;0.20;;;;;;;37.54;25.26;99436.56;7393419;19;21758;-90
2024/03/19 10:58:11;;;;;;;0.30;0.30;;;;;;;37.19;25.53;99440.47;7394607;19;20045;-89
2024/03/19 11:00:42;;;;;;;0.70;0.20;;;;;;;36.62;25.75;99436.97;7392902;19;20010;-90
2024/03/19 11:03:12;;;;;;;0.70;0.35;;;;;;;36.70;25.56;99428.53;7398231;19;20007;-89
2024/03/19 11:05:40;;;;;;;1.63;0.13;;;;;;;36.73;26.21;99439.56;7392719;19;20474;-88
2024/03/19 11:08:10;;;;;;;2.72;0.40;;;;;;;37.40;25.24;99427.41;7395112;19;20018;-89
2024/03/19 11:10:39;;;;;;;0.40;0.10;;;;;;;37.47;25.51;99443.63;7392987;19;20014;-89
2024/03/19 11:13:11;;;;;;;4.68;0.30;;;;;;;37.84;24.96;99446.28;7398687;19;20209;-89
2024/03/19 11:15:41;;;;;;;0.10;0.10;;;;;;;38.07;25.25;99445.59;7395523;19;20019;-90
2024/03/19 11:18:13;;;;;;;1.10;0.43;;;;;;;37.81;25.13;99444.75;7392589;19;20094;-90
2024/03/19 11:20:45;;;;;;;10.95;1.80;;;;;;;37.78;25.13;99448.97;7394137;19;20026;-90
2024/03/19 11:23:18;;;;;;;5.65;1.98;;;;;;;37.65;25.15;99452.91;7393313;19;20019;-90
2024/03/19 11:25:48;;;;;;;6.00;1.88;;;;;;;37.82;24.63;99454.94;7398633;19;20023;-89
2024/03/19 11:28:30;;;;;;;3.67;1.10;;;;;;;37.34;24.32;99459.13;7393000;19;20509;-90
2024/03/19 11:30:58;;;;;;;5.75;0.85;;;;;;;38.20;24.11;99461.22;7392527;19;20014;-89
2024/03/19 11:33:25;;;;;;;2.60;0.43;;;;;;;39.17;23.46;99456.81;7394931;19;20014;-90